WetterOnline ( http://www.wetteronline.de )

Wetter aktuell Kerbach

Aktuelles Wetter: Berus (367m)

6-stündlich | Neueste Meldungen
Ortszeit Temperatur Wetter
Fr, 22.02. 19:00 9.6° C wolkig
Fr, 22.02. 13:00 10.7° C bewölkt
Fr, 22.02. 7:00 8.0° C bedeckt
Fr, 22.02. 1:00 8.6° C bewölkt
Do, 21.02. 19:00 10.2° C wolkig
Do, 21.02. 13:00 11.8° C fast wolkenlos
Do, 21.02. 7:00 3.6° C leicht bewölkt
Do, 21.02. 1:00 6.3° C bewölkt
Ortszeit Temperatur Wetter
Fr, 22.02. 19:00 9.6° C wolkig
Fr, 22.02. 18:50 9.6° C wolkig
Fr, 22.02. 18:40 9.9° C wolkig
Fr, 22.02. 18:30 10.1° C bewölkt
Fr, 22.02. 18:20 10.1° C bewölkt
Fr, 22.02. 18:10 10.4° C bewölkt
Fr, 22.02. 18:00 10.8° C leicht bewölkt
Fr, 22.02. 17:30 11.2° C fast wolkenlos
Fr, 22.02. 17:00 11.6° C wolkenlos
Fr, 22.02. 16:30 11.9° C wolkig
Fr, 22.02. 16:00 11.8° C bewölkt
Ortszeit Relative Feuchte Sichtweite
Fr, 22.02. 19:00 64% 50 km
Fr, 22.02. 13:00 74% 19 km
Fr, 22.02. 7:00 85% 10 km
Fr, 22.02. 1:00 79% 14 km
Do, 21.02. 19:00 67% 28 km
Do, 21.02. 13:00 63% 20 km
Do, 21.02. 7:00 94% 4.5 km
Do, 21.02. 1:00 81% 22 km
Ortszeit Relative Feuchte Sichtweite
Fr, 22.02. 19:00 64% 50 km
Fr, 22.02. 18:50 64% -
Fr, 22.02. 18:40 66% -
Fr, 22.02. 18:30 66% 55 km
Fr, 22.02. 18:20 66% -
Fr, 22.02. 18:10 64% -
Fr, 22.02. 18:00 61% 60 km
Fr, 22.02. 17:30 59% 40 km
Fr, 22.02. 17:00 60% 60 km
Fr, 22.02. 16:30 61% 55 km
Fr, 22.02. 16:00 63% 55 km
Ortszeit Niederschlagsmenge Niederschlagsart
Fr, 22.02. 19:00 0.0 l/m2 in 12 Std. -
Fr, 22.02. 13:00 0.0 l/m2 in 6 Std. -
Fr, 22.02. 7:00 0.1 l/m2 in 12 Std. Regen
Fr, 22.02. 1:00 0.1 l/m2 in 6 Std. Regen
Do, 21.02. 19:00 0.0 l/m2 in 12 Std. -
Do, 21.02. 13:00 0.0 l/m2 in 6 Std. -
Do, 21.02. 7:00 0.0 l/m2 in 12 Std. -
Do, 21.02. 1:00 0.0 l/m2 in 6 Std. -
Ortszeit Niederschlagsmenge Niederschlagsart
Fr, 22.02. 19:00 0.0 l/m2 in 1 Std. -
Fr, 22.02. 18:50 keine Meldung -
Fr, 22.02. 18:40 keine Meldung -
Fr, 22.02. 18:30 0.0 l/m2 in 1 Std. -
Fr, 22.02. 18:20 keine Meldung -
Fr, 22.02. 18:10 keine Meldung -
Fr, 22.02. 18:00 0.0 l/m2 in 1 Std. -
Fr, 22.02. 17:30 0.0 l/m2 in 1 Std. -
Fr, 22.02. 17:00 0.0 l/m2 in 1 Std. -
Fr, 22.02. 16:30 0.0 l/m2 in 1 Std. -
Fr, 22.02. 16:00 0.0 l/m2 in 1 Std. -
Ortszeit Stärke Spitze Richtung
km/h Bft. km/h Grad Sektor
Fr, 22.02. 19:00 17 3 28 50° NO
Fr, 22.02. 13:00 7 2 18 40° NO
Fr, 22.02. 7:00 9 2 17 340° N
Fr, 22.02. 1:00 7 2 29 250° W
Do, 21.02. 19:00 9 2 28 260° W
Do, 21.02. 13:00 13 3 19 220° SW
Do, 21.02. 7:00 7 2 11 190° S
Do, 21.02. 1:00 6 1 9 210° SW
Ortszeit Stärke Spitze Richtung
km/h Bft. km/h Grad Sektor
Fr, 22.02. 19:00 17 3 28 50° NO
Fr, 22.02. 18:50 17 3 - 50° NO
Fr, 22.02. 18:40 15 3 - 50° NO
Fr, 22.02. 18:30 13 3 28 60° NO
Fr, 22.02. 18:20 13 3 - 60° NO
Fr, 22.02. 18:10 17 3 - 60° NO
Fr, 22.02. 18:00 19 3 28 60° NO
Fr, 22.02. 17:30 18 3 25 50° NO
Fr, 22.02. 17:00 13 3 28 50° NO
Fr, 22.02. 16:30 13 3 28 50° NO
Fr, 22.02. 16:00 17 3 26 50° NO
Ortszeit Untergrenze Bedeckung Gattung
total tief tief mittel hoch
Fr, 22.02. 19:00 990 m 7/8 3/8 - - -
Fr, 22.02. 13:00 420 m 7/8 7/8 - - -
Fr, 22.02. 7:00 420 m 8/8 8/8 - - -
Fr, 22.02. 1:00 780 m 7/8 7/8 - - -
Do, 21.02. 19:00 1800 m 6/8 6/8 - - -
Do, 21.02. 13:00 5100 m 1/8 1/8 - - -
Do, 21.02. 7:00 1500 m 4/8 4/8 - - -
Do, 21.02. 1:00 900 m 7/8 7/8 - - -
Ortszeit Bedeckungsgrad in Achtel und Wolkenuntergrenze
Fr, 22.02. 19:00 3(990m) 7(10500m) 7(12000m)
Fr, 22.02. 18:50 3(990m) 7(10500m) 7(12000m)
Fr, 22.02. 18:40 5(990m) 7(10500m)
Fr, 22.02. 18:30 7(1050m)
Fr, 22.02. 18:20 7(1050m)
Fr, 22.02. 18:10 7(1050m)
Fr, 22.02. 18:00 2(1080m)
Fr, 22.02. 17:30 1(990m)
Fr, 22.02. 17:00 keine Wolken
Fr, 22.02. 16:30 6(870m) 6(990m)
Fr, 22.02. 16:00 7(780m)
Ortszeit Luftdruck NN (hPa) Tendenz (hPa in 3 Std.)
Fr, 22.02. 19:00 1036 + 0,3
Fr, 22.02. 13:00 1036 + 0,8
Fr, 22.02. 7:00 1034 + 0,9
Fr, 22.02. 1:00 1032 + 1,1
Do, 21.02. 19:00 1030 + 0,9
Do, 21.02. 13:00 1029 + 0,1
Do, 21.02. 7:00 1029 + 0,1
Do, 21.02. 1:00 1028 + 0,8
Ortszeit Luftdruck NN (hPa) Tendenz (hPa in 3 Std.)
Fr, 22.02. 19:00 1036 + 0,3
Fr, 22.02. 18:50 1036 keine Meldung
Fr, 22.02. 18:40 1036 keine Meldung
Fr, 22.02. 18:30 1036 + 0,2
Fr, 22.02. 18:20 1036 keine Meldung
Fr, 22.02. 18:10 1036 keine Meldung
Fr, 22.02. 18:00 1035 - 0,1
Fr, 22.02. 17:30 1035 - 0,2
Fr, 22.02. 17:00 1035 - 0,2
Fr, 22.02. 16:30 1035 0,0
Fr, 22.02. 16:00 1035 - 0,1
Ortszeit Schneehöhe (cm)
Fr, 22.02. 19:00 0
Fr, 22.02. 13:00 0
Fr, 22.02. 7:00 0
Fr, 22.02. 1:00 0
Do, 21.02. 19:00 0
Do, 21.02. 13:00 0
Do, 21.02. 7:00 0
Do, 21.02. 1:00 0
Ortszeit Schneehöhe (cm)
Fr, 22.02. 19:00 0
Fr, 22.02. 18:50 0
Fr, 22.02. 18:40 0
Fr, 22.02. 18:30 0
Fr, 22.02. 18:20 0
Fr, 22.02. 18:10 0
Fr, 22.02. 18:00 0
Fr, 22.02. 17:30 0
Fr, 22.02. 17:00 0
Fr, 22.02. 16:30 0
Fr, 22.02. 16:00 0
Link zu dieser Seite / Seite empfehlen

Das Wetter in ...